Time;durP1;ratioP1;P1;durP2;ratioP2;P2;SDS_P1;SDS_P2;PMS_P1;PMS_P2;Temp;Humidity;BMP_temperature;BMP_pressure;BME280_temperature;BME280_humidity;BME280_pressure;Samples;Min_cycle;Max_cycle;Signal;HPM_P1;HPM_P2
2022/11/16 00:11:22;;;;;;;58.92;33.85;;;5.80;99.90;;;;;;4937603;29;20242;-88
2022/11/16 00:33:14;;;;;;;62.72;31.67;;;5.60;99.90;;;;;;4840439;29;20238;-88
2022/11/16 00:35:41;;;;;;;52.45;29.00;;;;;;;;;;4952992;28;20231;-89
2022/11/16 00:38:21;;;;;;;67.95;31.10;;;;;;;;;;5057499;28;20301;-89
2022/11/16 00:49:57;;;;;;;56.30;30.02;;;;;;;;;;5061024;28;20210;-89
2022/11/16 00:52:26;;;;;;;63.00;31.73;;;;;;;;;;5073450;28;20232;-89
2022/11/16 00:57:43;;;;;;;59.85;29.83;;;;;;;;;;5058589;28;20230;-89
2022/11/16 01:00:21;;;;;;;53.65;30.92;;;;;;;;;;5065307;28;20199;-88
2022/11/16 01:03:05;;;;;;;54.42;30.25;;;;;;;;;;5069118;28;20230;-90
2022/11/16 01:05:38;;;;;;;58.60;30.95;;;;;;;;;;5072459;28;20241;-88
2022/11/16 01:08:12;;;;;;;60.05;30.50;;;;;;;;;;5064054;28;20223;-87
2022/11/16 01:10:51;;;;;;;59.42;30.20;;;;;;;;;;5067334;28;20214;-88
2022/11/16 01:13:36;;;;;;;71.57;31.08;;;;;;;;;;5067023;28;20217;-88
2022/11/16 01:22:41;;;;;;;51.75;29.02;;;;;;;;;;5070780;28;20238;-88
2022/11/16 01:26:01;;;;;;;65.97;30.80;;;5.60;99.90;;;;;;5072848;28;20214;-88
2022/11/16 01:31:21;;;;;;;60.22;30.95;;;;;;;;;;5075473;28;20195;-88
2022/11/16 01:34:09;;;;;;;59.80;29.88;;;;;;;;;;5075404;28;20230;-87
2022/11/16 01:39:57;;;;;;;60.92;29.20;;;;;;;;;;5070999;28;20203;-88
2022/11/16 01:42:30;;;;;;;62.60;29.38;;;;;;;;;;5072124;28;20290;-88
2022/11/16 01:45:30;;;;;;;56.63;29.23;;;5.60;99.90;;;;;;5072051;28;20202;-88
2022/11/16 01:47:59;;;;;;;53.05;27.55;;;;;;;;;;5071839;28;20244;-88
2022/11/16 01:50:53;;;;;;;61.25;29.08;;;5.60;99.90;;;;;;5067869;28;20207;-88
2022/11/16 01:53:27;;;;;;;55.72;28.30;;;;;;;;;;5065536;28;20219;-88
2022/11/16 01:56:07;;;;;;;65.57;30.38;;;;;;;;;;5067686;28;20294;-88
2022/11/16 01:58:48;;;;;;;63.55;28.88;;;;;;;;;;5067645;28;20233;-88
2022/11/16 02:01:16;;;;;;;56.67;29.08;;;;;;;;;;5062046;28;20214;-88
2022/11/16 02:03:53;;;;;;;;;;;;;;;;;;;;;
2022/11/16 02:06:51;;;;;;;61.60;29.45;;;5.60;99.90;;;;;;5082852;23;20334;-88
2022/11/16 02:09:57;;;;;;;66.60;31.45;;;5.60;99.90;;;;;;5054947;28;20266;-88
2022/11/16 02:16:24;;;;;;;61.08;30.02;;;5.50;99.90;;;;;;4976306;28;20190;-87
2022/11/16 02:19:32;;;;;;;52.53;25.95;;;5.40;99.90;;;;;;5057566;28;20195;-87
2022/11/16 02:35:12;;;;;;;54.83;26.98;;;5.40;99.90;;;;;;5032955;28;20203;-88
2022/11/16 02:37:44;;;;;;;54.10;27.70;;;5.50;99.90;;;;;;5042470;28;20567;-89
2022/11/16 02:40:15;;;;;;;78.00;29.92;;;5.40;99.90;;;;;;5042316;28;20271;-89
2022/11/16 02:42:50;;;;;;;67.18;29.60;;;5.40;99.90;;;;;;5040052;28;20226;-89
2022/11/16 02:48:31;;;;;;;59.63;27.00;;;5.40;99.90;;;;;;5036924;28;20265;-88
2022/11/16 02:51:11;;;;;;;;;;;;;;;;;;;;;
2022/11/16 02:54:00;;;;;;;55.60;28.13;;;5.40;99.90;;;;;;5054161;28;20214;-87
2022/11/16 02:59:33;;;;;;;62.33;27.88;;;;;;;;;;5054361;28;20233;-88
2022/11/16 03:02:25;;;;;;;55.88;28.48;;;5.10;99.90;;;;;;5058178;28;20195;-87
2022/11/16 03:05:15;;;;;;;;;;;;;;;;;;;;;
2022/11/16 03:07:47;;;;;;;63.08;28.90;;;5.30;99.90;;;;;;5039170;28;20322;-88
2022/11/16 03:13:03;;;;;;;74.05;29.98;;;;;;;;;;5038871;28;20192;-88
2022/11/16 03:15:31;;;;;;;57.15;27.65;;;;;;;;;;5038714;28;20250;-87
2022/11/16 03:18:00;;;;;;;64.03;31.27;;;5.20;99.90;;;;;;5039432;28;20641;-89
2022/11/16 03:20:34;;;;;;;55.65;30.40;;;5.30;99.90;;;;;;5039708;28;20262;-89
2022/11/16 03:23:04;;;;;;;57.58;27.95;;;5.30;99.90;;;;;;5038770;28;20223;-88
2022/11/16 03:25:36;;;;;;;59.03;29.77;;;5.30;99.90;;;;;;5045633;28;20208;-89
2022/11/16 03:28:10;;;;;;;61.00;29.70;;;5.20;99.90;;;;;;5055151;28;20231;-88
2022/11/16 03:30:43;;;;;;;61.58;29.30;;;5.30;99.90;;;;;;5052601;28;20262;-87
2022/11/16 03:33:16;;;;;;;67.40;31.58;;;5.20;99.90;;;;;;5040509;28;20203;-88
2022/11/16 03:35:57;;;;;;;66.50;31.70;;;5.20;99.90;;;;;;5039869;28;20195;-87
2022/11/16 03:38:27;;;;;;;58.55;30.02;;;5.20;99.90;;;;;;5038655;28;20257;-88
2022/11/16 03:40:59;;;;;;;71.75;30.55;;;5.20;99.90;;;;;;5039361;28;20597;-88
2022/11/16 03:43:27;;;;;;;59.03;30.85;;;5.20;99.90;;;;;;5039193;28;20299;-87
2022/11/16 03:45:58;;;;;;;73.30;35.17;;;;;;;;;;5037968;28;20215;-88
2022/11/16 03:48:26;;;;;;;61.85;31.67;;;;;;;;;;5038056;28;20222;-88
2022/11/16 03:50:58;;;;;;;62.92;30.95;;;;;;;;;;5038923;28;20204;-89
2022/11/16 03:53:30;;;;;;;73.20;34.17;;;;;;;;;;5038541;28;20219;-89
2022/11/16 03:56:00;;;;;;;71.55;34.30;;;;;;;;;;5038038;28;20572;-89
2022/11/16 03:58:29;;;;;;;67.55;32.85;;;;;;;;;;5038450;28;20629;-89
2022/11/16 04:01:02;;;;;;;67.95;34.50;;;;;;;;;;5040925;28;20517;-89
2022/11/16 04:03:48;;;;;;;65.78;33.15;;;;;;;;;;5039608;28;20291;-89
2022/11/16 04:24:13;;;;;;;77.40;37.67;;;5.90;99.90;;;;;;5039749;28;20207;-88
2022/11/16 04:29:27;;;;;;;89.00;41.30;;;5.80;99.90;;;;;;5039175;28;20211;-89
2022/11/16 04:40:10;;;;;;;90.30;35.70;;;5.40;99.90;;;;;;5044838;28;20195;-89
2022/11/16 04:42:43;;;;;;;90.60;37.80;;;5.40;99.90;;;;;;5038783;28;20295;-89
2022/11/16 04:48:13;;;;;;;92.82;37.50;;;6.00;99.90;;;;;;5038085;28;20365;-88
2022/11/16 04:50:47;;;;;;;87.53;37.13;;;5.70;99.90;;;;;;5037169;28;20204;-89
2022/11/16 04:53:21;;;;;;;103.63;38.20;;;5.80;99.90;;;;;;5043694;28;20194;-88
2022/11/16 04:55:55;;;;;;;96.25;37.45;;;5.80;99.90;;;;;;5043500;28;20196;-88
2022/11/16 04:58:29;;;;;;;90.45;39.42;;;5.80;99.90;;;;;;5036979;28;20269;-88
2022/11/16 05:01:03;;;;;;;80.65;34.72;;;5.90;99.90;;;;;;5038407;28;20215;-88
2022/11/16 05:03:41;;;;;;;99.85;39.67;;;5.20;99.90;;;;;;5039112;28;20214;-88
2022/11/16 05:06:12;;;;;;;91.68;37.55;;;5.70;99.90;;;;;;5037493;28;20220;-88
2022/11/16 05:08:45;;;;;;;105.57;38.30;;;;;;;;;;5038841;28;20235;-89
2022/11/16 05:29:53;;;;;;;104.55;36.53;;;;;;;;;;4915748;29;20200;-88
2022/11/16 05:32:48;;;;;;;101.10;40.83;;;;;;;;;;4953034;28;20209;-88
2022/11/16 05:35:21;;;;;;;101.97;35.80;;;;;;;;;;4981335;28;20214;-88
2022/11/16 05:37:51;;;;;;;101.18;40.03;;;;;;;;;;4978777;28;20222;-88
2022/11/16 05:44:44;;;;;;;118.90;43.08;;;6.00;99.90;;;;;;4880071;29;20510;-88
2022/11/16 05:50:28;;;;;;;93.15;38.30;;;;;;;;;;4918312;29;20208;-88
2022/11/16 05:53:23;;;;;;;96.55;40.00;;;;;;;;;;4982347;28;20204;-87
2022/11/16 05:56:27;;;;;;;104.72;38.63;;;6.20;99.90;;;;;;5040900;28;20196;-89
2022/11/16 05:59:29;;;;;;;104.15;39.80;;;;;;;;;;5000411;28;20222;-88
2022/11/16 06:02:13;;;;;;;109.30;39.38;;;;;;;;;;4999778;28;20215;-88
2022/11/16 06:05:11;;;;;;;109.38;40.38;;;6.20;99.90;;;;;;5042018;28;20203;-88
2022/11/16 06:07:38;;;;;;;109.20;39.42;;;;;;;;;;5027102;28;20234;-88
2022/11/16 06:10:10;;;;;;;104.57;39.63;;;;;;;;;;5046049;28;20295;-88
2022/11/16 06:12:55;;;;;;;128.38;42.83;;;;;;;;;;5047639;28;20265;-88
2022/11/16 06:18:35;;;;;;;117.80;42.35;;;;;;;;;;5041599;28;20242;-89
2022/11/16 06:24:25;;;;;;;102.40;39.63;;;;;;;;;;5027385;28;20211;-88
2022/11/16 06:27:05;;;;;;;122.00;42.17;;;;;;;;;;5040679;28;20723;-88
2022/11/16 06:35:25;;;;;;;109.75;41.28;;;;;;;;;;5030238;28;20298;-87
2022/11/16 06:37:57;;;;;;;119.28;44.17;;;;;;;;;;5046281;28;20283;-88
2022/11/16 06:40:24;;;;;;;107.03;40.10;;;;;;;;;;5047487;28;20248;-86
2022/11/16 06:42:52;;;;;;;110.45;43.15;;;6.70;99.90;;;;;;5054578;28;20200;-89
2022/11/16 06:45:26;;;;;;;99.72;40.00;;;6.40;99.90;;;;;;5050664;28;20375;-88
2022/11/16 06:47:53;;;;;;;127.13;44.53;;;6.30;99.90;;;;;;5041973;28;20224;-88
2022/11/16 06:50:21;;;;;;;107.35;39.30;;;6.20;99.90;;;;;;5041939;28;20294;-89
2022/11/16 07:32:38;;;;;;;120.68;40.47;;;;;;;;;;5032206;28;20760;-88
2022/11/16 07:35:09;;;;;;;131.38;42.03;;;;;;;;;;5041320;28;20207;-88
2022/11/16 07:37:42;;;;;;;122.50;40.90;;;;;;;;;;5043856;28;20228;-88
2022/11/16 07:40:12;;;;;;;118.70;40.50;;;;;;;;;;5050933;28;20188;-88
2022/11/16 07:42:44;;;;;;;122.93;42.80;;;;;;;;;;5042948;28;20283;-88
2022/11/16 07:45:35;;;;;;;;;;;;;;;;;;;;;
2022/11/16 07:48:12;;;;;;;127.50;42.03;;;;;;;;;;5050405;28;20227;-89
2022/11/16 07:54:16;;;;;;;122.05;38.42;;;;;;;;;;5049907;28;20200;-88
2022/11/16 08:06:37;;;;;;;128.60;41.50;;;6.50;99.90;;;;;;5018633;23;20256;-88
2022/11/16 08:09:04;;;;;;;124.70;41.88;;;6.80;99.90;;;;;;5065156;28;20249;-88
2022/11/16 08:11:31;;;;;;;109.75;40.00;;;5.60;99.90;;;;;;5063041;28;20214;-87
2022/11/16 08:13:58;;;;;;;128.05;39.20;;;6.40;99.90;;;;;;5059038;28;20298;-86
2022/11/16 08:16:25;;;;;;;111.88;43.08;;;6.60;99.90;;;;;;5061317;28;20269;-88
2022/11/16 08:18:52;;;;;;;114.47;38.90;;;6.50;99.90;;;;;;5070997;28;20266;-87
2022/11/16 08:21:27;;;;;;;129.68;42.22;;;6.40;99.90;;;;;;5070762;28;20207;-87
2022/11/16 08:23:58;;;;;;;99.50;39.60;;;;;;;;;;5073321;28;20194;-87
2022/11/16 08:26:25;;;;;;;106.40;39.60;;;;;;;;;;5064383;28;20220;-86
2022/11/16 08:28:55;;;;;;;114.18;39.15;;;6.50;99.90;;;;;;5060108;28;20314;-86
2022/11/16 08:31:23;;;;;;;119.35;43.67;;;6.60;99.90;;;;;;5063784;28;20200;-88
2022/11/16 08:33:51;;;;;;;104.90;36.78;;;6.70;99.90;;;;;;5064183;28;20210;-87
2022/11/16 08:36:24;;;;;;;112.22;36.33;;;6.50;99.90;;;;;;5065038;28;20257;-87
2022/11/16 08:38:52;;;;;;;110.38;38.65;;;6.80;99.90;;;;;;5063398;28;20188;-87
2022/11/16 08:41:20;;;;;;;100.95;39.65;;;6.30;99.90;;;;;;5061949;28;20207;-87
2022/11/16 08:43:52;;;;;;;105.00;36.72;;;6.50;99.90;;;;;;5063058;28;20206;-88
2022/11/16 08:46:26;;;;;;;83.93;36.10;;;6.60;99.90;;;;;;5063260;28;20225;-88
2022/11/16 08:49:00;;;;;;;103.53;37.08;;;;;;;;;;5064843;28;20213;-87
2022/11/16 08:51:38;;;;;;;97.78;36.63;;;;;;;;;;5065568;28;20191;-88
2022/11/16 08:57:33;;;;;;;84.47;31.75;;;;;;;;;;5065429;28;20215;-88
2022/11/16 09:00:11;;;;;;;73.38;30.98;;;;;;;;;;5068327;28;20213;-88
2022/11/16 09:02:46;;;;;;;89.93;34.17;;;6.50;99.90;;;;;;5064232;28;20667;-88
2022/11/16 09:05:14;;;;;;;89.25;33.33;;;;;;;;;;5065522;28;20682;-88
2022/11/16 09:07:44;;;;;;;92.95;32.05;;;;;;;;;;5065795;28;20239;-88
2022/11/16 09:10:12;;;;;;;85.75;29.20;;;;;;;;;;5063740;28;20277;-88
2022/11/16 09:12:41;;;;;;;82.32;32.40;;;;;;;;;;5066332;28;20203;-88
2022/11/16 09:15:15;;;;;;;91.93;32.28;;;;;;;;;;5069209;28;20203;-88
2022/11/16 09:17:53;;;;;;;81.18;30.17;;;;;;;;;;5070988;28;20227;-89
2022/11/16 09:23:20;;;;;;;81.68;32.60;;;;;;;;;;5067505;28;20231;-88
2022/11/16 09:28:44;;;;;;;65.35;27.27;;;;;;;;;;5062860;28;20219;-88
2022/11/16 09:31:23;;;;;;;68.18;27.55;;;;;;;;;;5060291;28;20207;-88
2022/11/16 09:33:53;;;;;;;71.43;27.40;;;;;;;;;;5062069;28;20203;-87
2022/11/16 09:36:22;;;;;;;62.70;27.70;;;;;;;;;;5068159;28;20223;-88
2022/11/16 09:38:49;;;;;;;58.03;25.00;;;;;;;;;;5066793;28;20228;-88
2022/11/16 09:42:10;;;;;;;52.15;25.02;;;6.70;99.90;;;;;;5068164;28;20203;-88
2022/11/16 09:45:18;;;;;;;59.78;24.38;;;6.70;99.90;;;;;;4922986;29;20219;-88
2022/11/16 09:48:01;;;;;;;49.65;23.45;;;6.70;99.90;;;;;;4958725;28;20225;-88
2022/11/16 09:51:07;;;;;;;38.15;20.15;;;6.70;99.90;;;;;;5059451;28;20589;-87
2022/11/16 09:53:46;;;;;;;39.88;20.63;;;6.60;99.90;;;;;;5062307;28;20191;-88
2022/11/16 09:56:34;;;;;;;41.30;18.25;;;;;;;;;;5063626;28;20223;-88
2022/11/16 09:59:11;;;;;;;29.65;17.55;;;6.60;99.90;;;;;;5066183;28;20302;-88
2022/11/16 10:01:51;;;;;;;36.00;17.27;;;6.60;99.90;;;;;;5066608;28;20203;-87
2022/11/16 10:04:26;;;;;;;32.35;17.27;;;6.60;99.90;;;;;;5064295;28;20187;-88
2022/11/16 10:07:22;;;;;;;36.55;17.60;;;6.60;99.90;;;;;;5059593;28;20227;-87
2022/11/16 10:09:54;;;;;;;39.25;17.13;;;;;;;;;;5058571;28;20286;-87
2022/11/16 10:12:38;;;;;;;38.45;19.92;;;6.60;99.90;;;;;;5058306;28;20314;-87
2022/11/16 10:15:37;;;;;;;34.25;18.17;;;6.60;99.90;;;;;;5071954;28;20207;-87
2022/11/16 10:18:39;;;;;;;33.08;17.75;;;6.50;99.90;;;;;;5058183;28;20252;-87
2022/11/16 10:21:46;;;;;;;35.90;19.45;;;6.50;99.90;;;;;;5073855;28;20217;-86
2022/11/16 10:24:56;;;;;;;38.67;19.52;;;6.50;99.90;;;;;;5006817;28;20208;-88
2022/11/16 10:27:48;;;;;;;41.30;20.85;;;6.50;99.90;;;;;;4978729;28;20224;-87
2022/11/16 10:33:37;;;;;;;46.17;22.23;;;6.50;99.90;;;;;;5056700;28;20218;-87
2022/11/16 10:36:17;;;;;;;37.47;19.25;;;;;;;;;;5056568;28;20675;-88
2022/11/16 10:39:06;;;;;;;35.55;19.50;;;6.60;99.90;;;;;;5058134;28;20194;-87
2022/11/16 10:41:47;;;;;;;34.80;20.90;;;6.60;99.90;;;;;;5063176;28;20203;-87
2022/11/16 10:44:42;;;;;;;;;;;;;;;;;;;;;
2022/11/16 10:47:31;;;;;;;35.05;19.48;;;;;;;;;;5057610;28;20321;-87
2022/11/16 10:50:19;;;;;;;34.95;20.33;;;6.70;99.90;;;;;;5061517;28;20326;-87
2022/11/16 10:53:13;;;;;;;39.45;19.02;;;6.70;99.90;;;;;;5059423;28;20233;-87
2022/11/16 10:55:56;;;;;;;37.63;21.08;;;;;;;;;;5055200;28;20300;-87
2022/11/16 10:59:14;;;;;;;36.63;20.05;;;;;;;;;;5065314;28;20184;-88
2022/11/16 11:07:32;;;;;;;42.97;18.88;;;6.70;99.90;;;;;;5065868;28;20610;-88
2022/11/16 11:13:29;;;;;;;31.10;17.88;;;;;;;;;;5060155;28;20560;-88
2022/11/16 11:16:30;;;;;;;30.90;18.23;;;6.60;99.90;;;;;;5063967;28;20206;-88
2022/11/16 11:19:29;;;;;;;37.58;19.63;;;6.60;99.90;;;;;;5025420;28;20203;-89
2022/11/16 11:21:58;;;;;;;34.95;19.50;;;;;;;;;;5075760;28;20195;-88
2022/11/16 11:24:27;;;;;;;36.55;19.85;;;;;;;;;;5081000;28;20191;-89
2022/11/16 11:27:07;;;;;;;34.00;20.98;;;6.70;99.90;;;;;;5080874;28;20202;-91
2022/11/16 11:29:46;;;;;;;33.65;18.17;;;6.70;99.90;;;;;;5076399;28;20211;-89
2022/11/16 11:32:18;;;;;;;39.05;18.92;;;6.70;99.90;;;;;;5061634;28;20198;-90
2022/11/16 11:34:47;;;;;;;36.20;18.30;;;6.70;99.90;;;;;;5061639;28;20258;-90
2022/11/16 11:37:28;;;;;;;36.65;19.17;;;6.70;99.90;;;;;;5060264;28;20272;-90
2022/11/16 11:40:23;;;;;;;32.28;19.25;;;6.70;99.90;;;;;;5071901;28;20183;-90
2022/11/16 11:43:04;;;;;;;32.00;19.15;;;6.70;99.90;;;;;;5078529;28;20199;-89
2022/11/16 11:45:45;;;;;;;31.05;19.15;;;6.70;99.90;;;;;;5064539;28;20219;-90
2022/11/16 11:48:30;;;;;;;35.40;17.63;;;6.80;99.90;;;;;;5060903;28;20258;-90
2022/11/16 11:51:01;;;;;;;35.58;19.95;;;6.70;99.90;;;;;;5060932;28;20183;-89
2022/11/16 11:53:40;;;;;;;36.75;20.85;;;6.60;99.90;;;;;;5058567;28;20187;-89
2022/11/16 11:56:11;;;;;;;34.20;19.65;;;6.40;99.90;;;;;;5063913;28;20215;-89
2022/11/16 11:58:41;;;;;;;32.78;19.15;;;6.60;99.90;;;;;;5065170;28;20183;-89
2022/11/16 12:01:40;;;;;;;35.78;19.55;;;6.80;99.90;;;;;;5063968;28;20207;-89
2022/11/16 12:04:38;;;;;;;39.33;20.00;;;6.10;99.90;;;;;;5066114;28;20213;-89
2022/11/16 12:07:27;;;;;;;38.70;20.30;;;6.80;99.90;;;;;;5064318;28;20242;-89
2022/11/16 12:10:01;;;;;;;37.40;18.95;;;6.80;99.90;;;;;;5063449;28;20211;-90
2022/11/16 12:12:39;;;;;;;39.50;20.98;;;6.70;99.90;;;;;;5067735;28;20566;-89
2022/11/16 12:15:28;;;;;;;31.17;19.40;;;6.60;99.90;;;;;;5064055;28;20187;-89
2022/11/16 12:18:07;;;;;;;36.70;20.65;;;6.70;99.90;;;;;;5062842;28;20269;-89
2022/11/16 12:20:43;;;;;;;39.95;22.67;;;;;;;;;;5064678;28;20688;-90
2022/11/16 12:23:43;;;;;;;43.60;20.85;;;6.80;99.90;;;;;;5064510;28;20253;-90
2022/11/16 12:26:16;;;;;;;38.47;22.55;;;6.80;99.90;;;;;;5062786;28;20211;-88
2022/11/16 12:28:56;;;;;;;33.63;21.45;;;6.80;99.90;;;;;;5061193;28;20196;-88
2022/11/16 12:31:40;;;;;;;31.38;19.65;;;6.70;99.90;;;;;;5062213;28;20658;-88
2022/11/16 12:34:29;;;;;;;41.88;21.40;;;7.00;99.90;;;;;;5066830;28;20183;-88
2022/11/16 12:37:05;;;;;;;42.67;21.67;;;6.80;99.90;;;;;;5072858;28;20231;-88
2022/11/16 12:39:39;;;;;;;37.25;19.92;;;;;;;;;;5073339;28;20213;-88
2022/11/16 12:42:35;;;;;;;40.75;20.38;;;6.80;99.90;;;;;;5067750;28;20188;-88
2022/11/16 12:45:23;;;;;;;36.10;19.70;;;;;;;;;;5076571;28;20253;-87
2022/11/16 12:48:17;;;;;;;30.88;18.27;;;6.80;99.90;;;;;;5066418;28;20222;-87
2022/11/16 12:50:53;;;;;;;28.17;17.75;;;6.80;99.90;;;;;;5059625;28;20245;-87
2022/11/16 12:53:56;;;;;;;30.48;19.90;;;6.80;99.90;;;;;;5063608;28;20290;-87
2022/11/16 12:56:37;;;;;;;43.97;20.48;;;6.80;99.90;;;;;;5031514;28;20253;-87
2022/11/16 12:59:27;;;;;;;31.23;18.00;;;6.80;99.90;;;;;;5065056;28;20213;-87
2022/11/16 13:02:06;;;;;;;29.63;19.30;;;6.80;99.90;;;;;;5062960;28;20571;-87
2022/11/16 13:04:39;;;;;;;32.50;18.30;;;6.70;99.90;;;;;;5060515;28;20191;-89
2022/11/16 13:07:17;;;;;;;33.67;19.23;;;7.00;99.90;;;;;;5065086;28;20281;-88
2022/11/16 13:09:51;;;;;;;30.98;19.08;;;7.00;99.90;;;;;;5067975;28;20207;-88
2022/11/16 13:12:30;;;;;;;37.17;20.23;;;6.80;99.90;;;;;;5065689;28;20230;-87
2022/11/16 13:15:00;;;;;;;37.65;19.95;;;6.90;99.90;;;;;;5063178;28;20191;-87
2022/11/16 13:17:30;;;;;;;34.78;19.13;;;6.80;99.90;;;;;;5061101;28;20223;-88
2022/11/16 13:20:15;;;;;;;31.27;19.83;;;6.90;99.90;;;;;;5061392;28;20203;-87
2022/11/16 13:22:49;;;;;;;37.55;21.00;;;7.20;99.90;;;;;;5059248;28;20191;-87
2022/11/16 13:25:22;;;;;;;34.38;19.85;;;6.90;99.90;;;;;;5059347;28;20251;-87
2022/11/16 13:27:55;;;;;;;36.53;22.45;;;6.90;99.90;;;;;;5059053;28;20762;-87
2022/11/16 13:30:26;;;;;;;30.92;19.08;;;6.90;99.90;;;;;;5059156;28;20298;-86
2022/11/16 13:33:13;;;;;;;31.67;18.60;;;7.00;99.90;;;;;;5058721;28;20278;-87
2022/11/16 13:35:42;;;;;;;33.75;20.70;;;6.90;99.90;;;;;;5060450;28;20191;-87
2022/11/16 13:38:11;;;;;;;28.10;17.88;;;6.90;99.90;;;;;;5061084;28;20223;-88
2022/11/16 13:40:38;;;;;;;32.38;18.40;;;6.50;99.90;;;;;;5060278;28;20286;-87
2022/11/16 13:43:14;;;;;;;27.65;18.08;;;6.70;99.90;;;;;;5059642;28;20270;-87
2022/11/16 13:45:44;;;;;;;30.42;18.08;;;6.90;99.90;;;;;;5065312;28;20203;-87
2022/11/16 13:48:19;;;;;;;29.13;17.23;;;6.60;99.90;;;;;;5067316;28;20228;-87
2022/11/16 13:50:54;;;;;;;25.52;17.60;;;6.80;99.90;;;;;;5072838;28;20219;-87
2022/11/16 13:53:27;;;;;;;31.83;17.77;;;7.10;99.90;;;;;;5073572;28;20210;-87
2022/11/16 13:55:57;;;;;;;26.15;18.27;;;6.90;99.90;;;;;;5070172;28;20191;-88
2022/11/16 13:58:26;;;;;;;29.60;16.25;;;7.20;99.90;;;;;;5068806;28;20250;-87
2022/11/16 14:01:07;;;;;;;33.08;17.70;;;6.90;99.90;;;;;;5064965;28;20235;-88
2022/11/16 14:03:38;;;;;;;24.40;16.08;;;7.20;99.90;;;;;;5066978;28;20201;-87
2022/11/16 14:08:50;;;;;;;25.92;17.58;;;7.10;99.90;;;;;;5063614;28;20225;-88
2022/11/16 14:11:30;;;;;;;27.58;16.77;;;6.60;99.90;;;;;;5069324;28;20226;-86
2022/11/16 14:13:59;;;;;;;25.23;14.65;;;6.90;99.90;;;;;;5063214;28;20187;-88
2022/11/16 14:16:48;;;;;;;25.35;16.65;;;7.00;99.90;;;;;;5064727;28;20219;-88
2022/11/16 14:19:53;;;;;;;26.70;19.45;;;6.70;99.90;;;;;;5058321;28;20302;-87
2022/11/16 14:22:53;;;;;;;28.00;16.73;;;6.90;99.90;;;;;;5066252;28;20183;-86
2022/11/16 14:25:32;;;;;;;28.45;18.17;;;6.90;99.90;;;;;;5073865;28;20203;-86
2022/11/16 14:28:27;;;;;;;25.55;16.05;;;7.00;99.90;;;;;;5066968;28;20262;-86
2022/11/16 14:31:07;;;;;;;30.80;16.90;;;7.20;99.90;;;;;;5061739;28;20218;-86
2022/11/16 14:33:36;;;;;;;25.25;14.38;;;6.90;99.90;;;;;;5069623;28;20263;-87
2022/11/16 14:36:06;;;;;;;25.55;17.05;;;7.20;99.90;;;;;;5070005;28;20270;-88
2022/11/16 14:38:34;;;;;;;29.83;16.67;;;6.70;99.90;;;;;;5070213;28;20211;-87
2022/11/16 14:41:06;;;;;;;33.85;18.98;;;6.90;99.90;;;;;;5070384;28;20223;-87
2022/11/16 14:43:39;;;;;;;26.33;16.63;;;8.00;99.90;;;;;;5070557;28;20230;-87
2022/11/16 14:46:08;;;;;;;30.27;16.67;;;6.70;99.90;;;;;;5073653;28;20192;-87
2022/11/16 14:48:43;;;;;;;29.55;17.50;;;6.90;99.90;;;;;;5071446;28;20203;-87
2022/11/16 14:51:14;;;;;;;24.00;14.73;;;6.90;99.90;;;;;;5070580;28;20282;-88
2022/11/16 14:53:46;;;;;;;22.25;15.00;;;6.80;99.90;;;;;;5070547;28;20266;-87
2022/11/16 14:56:16;;;;;;;27.10;15.70;;;7.20;99.90;;;;;;5070390;28;20275;-86
2022/11/16 14:58:51;;;;;;;22.88;16.42;;;7.00;99.90;;;;;;5067738;28;20183;-86
2022/11/16 15:01:19;;;;;;;30.17;16.42;;;6.80;99.90;;;;;;5071112;28;20205;-86
2022/11/16 15:03:54;;;;;;;26.27;14.38;;;7.00;99.90;;;;;;5068997;28;20209;-87
2022/11/16 15:06:22;;;;;;;26.33;15.65;;;7.00;99.90;;;;;;5066510;28;20187;-86
2022/11/16 15:08:53;;;;;;;29.58;16.85;;;6.90;99.90;;;;;;5069450;28;20220;-88
2022/11/16 15:12:40;;;;;;;23.90;16.33;;;6.90;99.90;;;;;;5069083;28;20215;-87
2022/11/16 15:14:19;;;;;;;27.35;15.50;;;6.90;99.90;;;;;;5067500;28;20207;-87
2022/11/16 15:16:51;;;;;;;23.65;15.45;;;6.90;99.90;;;;;;5069176;28;20730;-86
2022/11/16 15:19:18;;;;;;;22.90;14.55;;;6.90;99.90;;;;;;5069551;28;20211;-86
2022/11/16 15:21:52;;;;;;;24.05;15.10;;;6.80;99.90;;;;;;5071302;28;20237;-88
2022/11/16 15:24:23;;;;;;;24.15;14.45;;;6.80;99.90;;;;;;5073795;28;20187;-88
2022/11/16 15:26:52;;;;;;;19.73;13.55;;;6.80;99.90;;;;;;5074619;28;20224;-87
2022/11/16 15:29:20;;;;;;;21.50;13.40;;;6.70;99.90;;;;;;5073238;28;20223;-87
2022/11/16 15:31:48;;;;;;;24.70;14.95;;;6.80;99.90;;;;;;5074350;28;20210;-87
2022/11/16 15:34:17;;;;;;;23.50;15.70;;;6.80;99.90;;;;;;5074252;28;20218;-87
2022/11/16 15:36:44;;;;;;;24.10;13.70;;;6.80;99.90;;;;;;5073370;28;20223;-86
2022/11/16 15:39:14;;;;;;;25.15;14.27;;;6.90;99.90;;;;;;5069623;28;20238;-85
2022/11/16 15:41:42;;;;;;;25.00;13.48;;;6.80;99.90;;;;;;5070679;28;20192;-86
2022/11/16 15:44:14;;;;;;;24.13;13.88;;;6.80;99.90;;;;;;5070115;28;20238;-87
2022/11/16 15:46:42;;;;;;;24.83;13.50;;;6.80;99.90;;;;;;5070467;28;20301;-87
2022/11/16 15:49:18;;;;;;;20.20;13.00;;;6.50;99.90;;;;;;5069131;28;20267;-86
2022/11/16 15:51:45;;;;;;;19.48;12.25;;;;;;;;;;5068794;28;20207;-87
2022/11/16 15:54:14;;;;;;;17.83;11.80;;;6.70;99.90;;;;;;5068504;28;20214;-88
2022/11/16 15:56:41;;;;;;;18.13;12.15;;;6.70;99.90;;;;;;5068076;28;20219;-86
2022/11/16 15:59:17;;;;;;;21.80;13.55;;;6.70;99.90;;;;;;5069120;28;20230;-88
2022/11/16 16:01:44;;;;;;;21.25;12.45;;;6.70;99.90;;;;;;5070690;28;20246;-87
2022/11/16 16:04:16;;;;;;;21.38;12.85;;;6.70;99.90;;;;;;5070249;28;20229;-87
2022/11/16 16:06:46;;;;;;;18.85;12.52;;;6.70;99.90;;;;;;5070105;28;20788;-88
2022/11/16 16:09:26;;;;;;;25.33;14.23;;;6.70;99.90;;;;;;5072496;28;20187;-88
2022/11/16 16:11:53;;;;;;;17.98;11.98;;;;;;;;;;5074649;28;20222;-87
2022/11/16 16:14:27;;;;;;;18.27;12.35;;;6.70;99.90;;;;;;5071371;28;20200;-86
2022/11/16 16:16:56;;;;;;;17.83;12.05;;;6.60;99.90;;;;;;5071325;28;20281;-87
2022/11/16 16:19:38;;;;;;;17.90;11.25;;;6.60;99.90;;;;;;5073398;28;20226;-85
2022/11/16 16:22:11;;;;;;;21.08;12.55;;;6.70;99.90;;;;;;5071835;28;20282;-88
2022/11/16 16:24:41;;;;;;;20.02;13.57;;;6.80;99.90;;;;;;5070758;28;20255;-87
2022/11/16 16:27:17;;;;;;;18.63;11.48;;;6.80;99.90;;;;;;5068994;28;20234;-87
2022/11/16 16:29:46;;;;;;;29.63;18.85;;;6.50;99.90;;;;;;5069210;28;20211;-86
2022/11/16 16:32:22;;;;;;;19.30;12.90;;;6.50;99.90;;;;;;5073306;28;20354;-85
2022/11/16 16:34:49;;;;;;;23.75;12.88;;;6.70;99.90;;;;;;5064651;28;20690;-86
2022/11/16 16:37:16;;;;;;;20.40;13.15;;;6.90;99.90;;;;;;5067598;28;20580;-85
2022/11/16 16:39:43;;;;;;;18.17;11.98;;;6.60;99.90;;;;;;5066081;28;20199;-86
2022/11/16 16:42:12;;;;;;;18.63;11.98;;;6.60;99.90;;;;;;5066916;28;20216;-86
2022/11/16 16:44:39;;;;;;;21.23;12.73;;;6.60;99.90;;;;;;5072086;28;20263;-86
2022/11/16 16:47:08;;;;;;;20.92;12.48;;;6.70;99.90;;;;;;5066079;28;20263;-89
2022/11/16 16:49:35;;;;;;;18.75;13.25;;;6.70;99.90;;;;;;5068322;28;20200;-87
2022/11/16 16:52:02;;;;;;;16.08;12.23;;;6.40;99.90;;;;;;5066996;28;20715;-86
2022/11/16 16:54:29;;;;;;;15.65;11.50;;;;;;;;;;5067977;28;20235;-87
2022/11/16 16:56:57;;;;;;;22.52;12.73;;;6.40;99.90;;;;;;5068612;28;20227;-87
2022/11/16 16:59:25;;;;;;;23.00;12.40;;;;;;;;;;5067654;28;20271;-87
2022/11/16 17:01:52;;;;;;;18.00;11.10;;;;;;;;;;5070363;28;20212;-88
2022/11/16 17:04:20;;;;;;;16.50;10.30;;;7.00;99.90;;;;;;5072732;28;20210;-88
2022/11/16 17:06:47;;;;;;;17.73;11.30;;;6.70;99.90;;;;;;5069267;28;20315;-88
2022/11/16 17:09:14;;;;;;;15.75;10.73;;;6.70;99.90;;;;;;5068387;28;20611;-88
2022/11/16 17:11:41;;;;;;;15.15;10.43;;;6.70;99.90;;;;;;5067035;28;20283;-87
2022/11/16 17:14:08;;;;;;;19.05;10.90;;;6.70;99.90;;;;;;5064458;28;20640;-86
2022/11/16 17:16:35;;;;;;;16.83;11.02;;;6.70;99.90;;;;;;5064957;28;20295;-87
2022/11/16 17:19:03;;;;;;;17.38;12.73;;;6.60;99.90;;;;;;5068434;28;20294;-88
2022/11/16 17:21:32;;;;;;;17.17;10.73;;;;;;;;;;5075981;28;20214;-86
2022/11/16 17:23:59;;;;;;;16.40;11.15;;;;;;;;;;5078605;28;20183;-85
2022/11/16 17:26:28;;;;;;;15.25;9.25;;;;;;;;;;5078501;28;20239;-88
2022/11/16 17:28:55;;;;;;;19.70;10.95;;;6.60;99.90;;;;;;5067292;28;20195;-88
2022/11/16 17:31:23;;;;;;;20.52;11.90;;;6.80;99.90;;;;;;5067029;28;20582;-88
2022/11/16 17:33:50;;;;;;;22.00;12.90;;;6.40;99.90;;;;;;5066677;28;20263;-88
2022/11/16 17:36:17;;;;;;;14.43;10.85;;;;;;;;;;5066239;28;20214;-88
2022/11/16 17:38:46;;;;;;;15.80;13.02;;;6.50;99.90;;;;;;5065460;28;20227;-88
2022/11/16 17:41:14;;;;;;;19.35;11.45;;;6.70;99.90;;;;;;5065494;28;20202;-88
2022/11/16 17:43:42;;;;;;;15.30;11.10;;;7.00;99.90;;;;;;5070817;28;20227;-87